createdAt,value
2023-05-12T00:02:29.208Z,6.47
2023-05-12T00:07:32.536Z,6.10
2023-05-12T00:12:36.846Z,5.20
2023-05-12T00:17:39.741Z,8.90
2023-05-12T00:22:42.631Z,12.50
2023-05-12T00:27:46.752Z,10.38
2023-05-12T00:32:49.710Z,8.63
2023-05-12T00:37:52.612Z,7.10
2023-05-12T00:42:56.866Z,6.05
2023-05-12T00:47:59.881Z,6.30
2023-05-12T00:53:03.101Z,5.18
2023-05-12T00:58:07.547Z,5.13
2023-05-12T01:03:11.739Z,4.25
2023-05-12T01:08:15.047Z,4.50
2023-05-12T01:13:19.517Z,4.28
2023-05-12T01:18:25.325Z,4.18
2023-05-12T01:23:34.914Z,4.32
2023-05-12T01:28:41.160Z,4.28
2023-05-12T01:33:44.744Z,4.20
2023-05-12T01:38:47.849Z,4.63
2023-05-12T01:43:52.116Z,4.10
2023-05-12T01:48:54.943Z,4.20
2023-05-12T01:53:57.886Z,4.47
2023-05-12T01:59:04.653Z,4.15
2023-05-12T02:04:09.184Z,4.53
2023-05-12T02:09:13.343Z,4.22
2023-05-12T02:14:17.548Z,4.00
2023-05-12T02:19:20.770Z,4.60
2023-05-12T02:24:23.741Z,4.40
2023-05-12T02:29:27.911Z,4.60
2023-05-12T02:34:30.937Z,4.15
2023-05-12T02:39:34.226Z,4.30
2023-05-12T02:44:38.561Z,4.20
2023-05-12T02:49:41.662Z,4.13
2023-05-12T02:54:44.678Z,4.38
2023-05-12T02:59:48.905Z,4.03
2023-05-12T03:04:51.730Z,4.03
2023-05-12T03:09:54.605Z,4.10
2023-05-12T03:15:00.425Z,4.60
2023-05-12T03:20:03.503Z,4.10
2023-05-12T03:25:08.187Z,4.28
2023-05-12T03:30:13.717Z,4.50
2023-05-12T03:35:16.669Z,4.38
2023-05-12T03:40:19.914Z,4.70
2023-05-12T03:45:24.788Z,4.90
2023-05-12T03:50:27.579Z,4.80
2023-05-12T03:55:30.475Z,4.13
2023-05-12T04:00:35.237Z,4.22
2023-05-12T04:05:39.523Z,4.78
2023-05-12T04:10:43.323Z,4.30
2023-05-12T04:15:47.459Z,4.65
2023-05-12T04:20:50.234Z,4.78
2023-05-12T04:25:53.623Z,4.85
2023-05-12T04:30:57.859Z,4.97
2023-05-12T04:36:01.417Z,5.30
2023-05-12T04:41:04.557Z,5.10
2023-05-12T04:46:09.077Z,4.53
2023-05-12T04:51:12.101Z,4.30
2023-05-12T04:56:15.025Z,4.55
2023-05-12T05:01:20.163Z,4.38
2023-05-12T05:06:23.216Z,4.50
2023-05-12T05:11:26.896Z,5.03
2023-05-12T05:16:31.330Z,4.97
2023-05-12T05:21:34.546Z,5.07
2023-05-12T05:26:37.561Z,4.65
2023-05-12T05:31:41.756Z,4.80
2023-05-12T05:36:44.598Z,5.07
2023-05-12T05:41:47.562Z,4.75
2023-05-12T05:46:52.147Z,5.18
2023-05-12T05:51:56.192Z,5.07
2023-05-12T05:57:02.074Z,5.10
2023-05-12T06:02:07.835Z,5.18
2023-05-12T06:07:10.753Z,4.88
2023-05-12T06:12:13.617Z,4.95
2023-05-12T06:17:18.081Z,4.75
2023-05-12T06:22:21.270Z,5.03
2023-05-12T06:27:24.341Z,5.18
2023-05-12T06:32:28.511Z,4.93
2023-05-12T06:37:31.334Z,5.20
2023-05-12T06:42:34.142Z,5.13
2023-05-12T06:47:45.656Z,5.20
2023-05-12T06:52:48.504Z,4.60
2023-05-12T06:57:55.715Z,5.22
2023-05-12T07:03:00.028Z,4.88
2023-05-12T07:08:02.851Z,5.18
2023-05-12T07:13:05.726Z,5.07
2023-05-12T07:18:10.076Z,4.57
2023-05-12T07:23:13.052Z,4.90
2023-05-12T07:28:16.001Z,4.50
2023-05-12T07:33:20.192Z,4.38
2023-05-12T07:38:23.086Z,4.68
2023-05-12T07:43:25.973Z,4.57
2023-05-12T07:48:30.607Z,4.57
2023-05-12T07:53:33.493Z,4.45
2023-05-12T07:58:36.524Z,4.38
2023-05-12T08:03:40.722Z,4.78
2023-05-12T08:08:43.727Z,4.72
2023-05-12T08:13:46.594Z,4.43
2023-05-12T08:18:51.047Z,4.55
2023-05-12T08:23:53.844Z,4.28
2023-05-12T08:28:56.652Z,4.18
2023-05-12T08:34:09.642Z,4.40
2023-05-12T08:39:12.955Z,4.70
2023-05-12T08:44:17.031Z,4.70
2023-05-12T08:49:26.168Z,4.20
2023-05-12T08:54:29.811Z,5.00
2023-05-12T08:59:35.655Z,4.07
2023-05-12T09:04:39.815Z,4.80
2023-05-12T09:09:45.995Z,4.18
2023-05-12T09:14:59.631Z,3.85
2023-05-12T09:20:04.253Z,3.67
2023-05-12T09:25:17.255Z,4.57
2023-05-12T09:30:30.654Z,3.53
2023-05-12T09:35:39.270Z,3.88
2023-05-12T09:40:43.064Z,4.20
2023-05-12T09:45:50.081Z,4.05
2023-05-12T09:50:54.291Z,3.90
2023-05-12T09:55:57.058Z,3.72
2023-05-12T10:01:20.924Z,3.50
2023-05-12T10:06:28.222Z,3.85
2023-05-12T10:11:31.439Z,3.85
2023-05-12T10:16:34.772Z,3.70
2023-05-12T10:21:39.646Z,3.88
2023-05-12T10:26:43.737Z,3.22
2023-05-12T10:31:47.811Z,3.45
2023-05-12T10:36:54.103Z,3.80
2023-05-12T10:42:02.364Z,3.58
2023-05-12T10:47:14.702Z,3.53
2023-05-12T10:52:21.915Z,3.63
2023-05-12T10:57:24.878Z,3.33
2023-05-12T11:02:32.051Z,3.28
2023-05-12T11:07:37.528Z,3.65
2023-05-12T11:12:40.780Z,3.60
2023-05-12T11:17:43.607Z,3.75
2023-05-12T11:22:48.020Z,3.40
2023-05-12T11:27:51.413Z,2.88
2023-05-12T11:33:04.374Z,3.53
2023-05-12T11:38:17.815Z,3.50
2023-05-12T11:43:22.235Z,3.72
2023-05-12T11:48:35.480Z,3.72
2023-05-12T11:53:42.547Z,3.53
2023-05-12T11:58:53.635Z,3.47
2023-05-12T12:03:57.067Z,3.80
2023-05-12T12:09:02.059Z,3.58
2023-05-12T12:14:05.040Z,4.05
2023-05-12T12:19:08.780Z,3.78
2023-05-12T12:24:12.950Z,3.50
2023-05-12T12:29:15.707Z,3.20
2023-05-12T12:34:19.179Z,3.30
2023-05-12T12:39:23.327Z,3.60
2023-05-12T12:44:26.547Z,2.97
2023-05-12T12:49:29.489Z,3.17
2023-05-12T12:54:33.710Z,3.28
2023-05-12T12:59:36.469Z,3.10
2023-05-12T13:04:39.330Z,3.35
2023-05-12T13:09:43.395Z,2.60
2023-05-12T13:14:46.199Z,3.13
2023-05-12T13:19:48.959Z,2.92
2023-05-12T13:24:53.037Z,3.60
2023-05-12T13:29:55.819Z,2.90
2023-05-12T13:34:59.109Z,2.80
2023-05-12T13:40:03.382Z,2.58
2023-05-12T13:45:07.316Z,2.55
2023-05-12T13:50:10.487Z,2.88
2023-05-12T13:55:20.534Z,2.80
2023-05-12T14:00:27.009Z,2.60
2023-05-12T14:05:29.820Z,2.83
2023-05-12T14:10:35.375Z,2.90
2023-05-12T14:15:48.852Z,3.10
2023-05-12T14:20:52.678Z,4.15
2023-05-12T14:25:56.949Z,2.65
2023-05-12T14:30:59.772Z,2.80
2023-05-12T14:36:07.496Z,3.58
2023-05-12T14:41:12.361Z,2.97
2023-05-12T14:46:15.310Z,3.35
2023-05-12T14:51:18.220Z,3.17
2023-05-12T14:56:22.325Z,3.47
2023-05-12T15:01:25.092Z,4.40
2023-05-12T15:06:27.838Z,4.22
2023-05-12T15:11:31.925Z,3.40
2023-05-12T15:16:34.673Z,3.60
2023-05-12T15:21:37.443Z,3.47
2023-05-12T15:26:41.751Z,3.80
2023-05-12T15:31:45.128Z,4.13
2023-05-12T15:36:48.833Z,4.15
2023-05-12T15:41:53.210Z,6.00
2023-05-12T15:46:56.469Z,3.70
2023-05-12T15:51:59.370Z,3.60
2023-05-12T15:57:04.000Z,3.88
2023-05-12T16:02:08.280Z,4.10
2023-05-12T16:07:11.230Z,3.75
2023-05-12T16:12:15.540Z,3.97
2023-05-12T16:17:18.396Z,3.63
2023-05-12T16:22:21.213Z,3.63
2023-05-12T16:27:25.556Z,3.92
2023-05-12T16:32:28.519Z,4.10
2023-05-12T16:37:32.371Z,3.58
2023-05-12T16:42:36.577Z,3.72
2023-05-12T16:47:39.367Z,3.90
2023-05-12T16:52:42.204Z,3.90
2023-05-12T16:57:46.271Z,3.78
2023-05-12T17:02:49.153Z,3.80
2023-05-12T17:07:52.358Z,3.63
2023-05-12T17:12:56.566Z,4.03
2023-05-12T17:17:59.514Z,3.90
2023-05-12T17:23:02.601Z,4.00
2023-05-12T17:28:07.049Z,4.00
2023-05-12T17:33:09.873Z,3.88
2023-05-12T17:38:12.604Z,4.05
2023-05-12T17:43:16.686Z,3.70
2023-05-12T17:48:19.665Z,4.00
2023-05-12T17:53:22.416Z,3.85
2023-05-12T17:58:26.682Z,3.25
2023-05-12T18:03:29.965Z,3.83
2023-05-12T18:08:32.809Z,3.38
2023-05-12T18:13:37.075Z,3.35
2023-05-12T18:18:39.912Z,3.58
2023-05-12T18:23:42.771Z,3.33
2023-05-12T18:28:46.955Z,3.78
2023-05-12T18:33:50.894Z,4.05
2023-05-12T18:38:53.915Z,3.55
2023-05-12T18:43:58.067Z,3.25
2023-05-12T18:49:00.944Z,3.50
2023-05-12T18:54:04.308Z,4.13
2023-05-12T18:59:08.410Z,4.22
2023-05-12T19:04:11.811Z,4.70
2023-05-12T19:09:14.703Z,4.68
2023-05-12T19:14:19.786Z,4.90
2023-05-12T19:19:22.757Z,4.10
2023-05-12T19:24:26.840Z,5.00
2023-05-12T19:30:05.561Z,4.85
2023-05-12T19:35:12.425Z,4.40
2023-05-12T19:40:15.350Z,5.00
2023-05-12T19:45:19.877Z,5.45
2023-05-12T19:50:22.849Z,5.28
2023-05-12T19:55:25.797Z,4.85
2023-05-12T20:00:30.025Z,5.63
2023-05-12T20:05:32.878Z,5.03
2023-05-12T20:10:35.728Z,5.53
2023-05-12T20:15:39.968Z,5.38
2023-05-12T20:20:43.244Z,5.40
2023-05-12T20:25:46.666Z,5.60
2023-05-12T20:30:51.713Z,6.07
2023-05-12T20:35:54.667Z,6.07
2023-05-12T20:40:57.506Z,5.93
2023-05-12T20:46:04.652Z,6.15
2023-05-12T20:51:13.899Z,6.60
2023-05-12T20:56:16.857Z,6.03
2023-05-12T21:01:21.050Z,5.55
2023-05-12T21:06:23.930Z,5.88
2023-05-12T21:11:26.909Z,6.10
2023-05-12T21:16:31.022Z,6.25
2023-05-12T21:21:33.853Z,5.65
2023-05-12T21:26:36.627Z,6.25
2023-05-12T21:31:40.687Z,6.22
2023-05-12T21:36:43.564Z,6.00
2023-05-12T21:41:46.315Z,5.68
2023-05-12T21:46:50.500Z,8.27
2023-05-12T21:51:55.820Z,6.82
2023-05-12T21:56:58.755Z,6.88
2023-05-12T22:02:02.869Z,6.72
2023-05-12T22:07:06.041Z,6.20
2023-05-12T22:12:13.501Z,5.97
2023-05-12T22:17:17.683Z,6.30
2023-05-12T22:22:20.420Z,6.10
2023-05-12T22:27:23.211Z,5.90
2023-05-12T22:32:27.471Z,6.10
2023-05-12T22:37:30.378Z,6.10
2023-05-12T22:42:33.149Z,7.35
2023-05-12T22:47:37.476Z,6.72
2023-05-12T22:52:40.332Z,6.40
2023-05-12T22:57:45.321Z,5.75
2023-05-12T23:02:49.478Z,6.53
2023-05-12T23:07:52.208Z,5.60
2023-05-12T23:12:55.141Z,6.85
2023-05-12T23:17:59.281Z,6.20
2023-05-12T23:23:02.159Z,5.18
2023-05-12T23:28:05.080Z,5.65
2023-05-12T23:33:09.244Z,5.78
2023-05-12T23:38:12.042Z,6.20
2023-05-12T23:43:15.154Z,5.82
2023-05-12T23:48:19.347Z,6.22
2023-05-12T23:53:22.120Z,6.20
2023-05-12T23:58:24.880Z,5.75
